Time;durP1;ratioP1;P1;durP2;ratioP2;P2;SDS_P1;SDS_P2;PMS_P1;PMS_P2;Temp;Humidity;BMP_temperature;BMP_pressure;BME280_temperature;BME280_humidity;BME280_pressure;Samples;Min_cycle;Max_cycle;Signal;HPM_P1;HPM_P2
2022/09/27 00:00:24;;;;;;;12.90;1.48;;;9.80;99.90;;;;;;4954801;28;225682;-74
2022/09/27 00:02:50;;;;;;;10.93;1.48;;;9.70;99.90;;;;;;5003437;28;20061;-74
2022/09/27 00:05:17;;;;;;;12.30;1.30;;;9.70;99.90;;;;;;4959596;28;209929;-75
2022/09/27 00:07:44;;;;;;;12.45;1.33;;;9.60;99.90;;;;;;5004942;28;20050;-74
2022/09/27 00:10:10;;;;;;;10.35;1.27;;;9.70;99.90;;;;;;4973371;28;209180;-74
2022/09/27 00:12:36;;;;;;;14.43;1.40;;;9.60;99.90;;;;;;4977922;28;208726;-74
2022/09/27 00:15:04;;;;;;;16.70;1.42;;;9.60;99.90;;;;;;4989000;28;20076;-74
2022/09/27 00:17:31;;;;;;;11.68;1.20;;;9.60;99.90;;;;;;4955747;28;206879;-74
2022/09/27 00:20:00;;;;;;;12.15;1.50;;;9.60;99.90;;;;;;5019722;28;20061;-74
2022/09/27 00:22:27;;;;;;;14.05;1.25;;;9.60;99.90;;;;;;4955088;28;211770;-75
2022/09/27 00:24:54;;;;;;;11.52;1.27;;;9.60;99.90;;;;;;5006810;28;20049;-75
2022/09/27 00:27:20;;;;;;;13.50;1.55;;;9.50;99.90;;;;;;4962525;28;206969;-75
2022/09/27 00:29:46;;;;;;;13.85;1.55;;;9.50;99.90;;;;;;5007535;28;20496;-74
2022/09/27 00:32:13;;;;;;;13.45;1.25;;;9.50;99.90;;;;;;4939056;28;215903;-75
2022/09/27 00:34:40;;;;;;;13.27;1.38;;;9.50;99.90;;;;;;5009328;28;20521;-75
2022/09/27 00:37:08;;;;;;;8.10;1.02;;;9.60;99.90;;;;;;4979710;28;171619;-75
2022/09/27 00:39:34;;;;;;;12.13;1.48;;;9.60;99.90;;;;;;5007652;28;20041;-75
2022/09/27 00:42:00;;;;;;;10.50;1.20;;;9.60;99.90;;;;;;4979545;28;215987;-75
2022/09/27 00:44:27;;;;;;;10.73;1.00;;;9.50;99.90;;;;;;5011944;28;20056;-74
2022/09/27 00:47:12;;;;;;;13.73;1.27;;;9.60;99.90;;;;;;4978743;28;206942;-75
2022/09/27 00:49:45;;;;;;;9.75;1.17;;;9.60;99.90;;;;;;5005657;28;20062;-75
2022/09/27 00:52:19;;;;;;;11.25;1.10;;;9.60;99.90;;;;;;4985136;28;205675;-75
2022/09/27 00:54:49;;;;;;;13.90;1.25;;;9.60;99.90;;;;;;5009138;28;20064;-75
2022/09/27 00:57:16;;;;;;;11.77;1.33;;;9.60;99.90;;;;;;4972070;28;215439;-75
2022/09/27 01:00:00;;;;;;;14.15;1.30;;;9.50;99.90;;;;;;5025232;28;20057;-76
2022/09/27 01:02:27;;;;;;;10.80;1.10;;;9.60;99.90;;;;;;4989755;28;196735;-76
2022/09/27 01:04:54;;;;;;;12.18;1.20;;;9.40;99.90;;;;;;5021370;28;20053;-75
2022/09/27 01:07:20;;;;;;;6.43;0.98;;;9.40;99.90;;;;;;4999391;28;204536;-75
2022/09/27 01:09:46;;;;;;;11.88;1.10;;;9.30;99.90;;;;;;5007738;28;20053;-75
2022/09/27 01:12:30;;;;;;;8.82;1.08;;;9.40;99.90;;;;;;4971141;28;213599;-76
2022/09/27 01:15:11;;;;;;;11.32;1.20;;;9.30;99.90;;;;;;5014035;28;20050;-75
2022/09/27 01:17:54;;;;;;;;;;;9.30;99.90;;;;;;4960414;28;215657;-75
2022/09/27 01:20:39;;;;;;;9.47;1.00;;;9.30;99.90;;;;;;4989465;28;212539;-75
2022/09/27 01:23:32;;;;;;;10.30;1.08;;;9.30;99.90;;;;;;5013478;28;20046;-75
2022/09/27 01:26:09;;;;;;;10.50;1.02;;;9.20;99.90;;;;;;4976086;28;204919;-75
2022/09/27 01:28:57;;;;;;;9.88;0.98;;;9.20;99.90;;;;;;5015268;28;20060;-75
2022/09/27 01:32:05;;;;;;;8.60;1.00;;;9.20;99.90;;;;;;4956377;28;214580;-75
2022/09/27 01:34:46;;;;;;;9.55;1.05;;;9.20;99.90;;;;;;4992848;28;20046;-75
2022/09/27 01:37:36;;;;;;;9.48;1.20;;;9.20;99.90;;;;;;4954627;28;207323;-75
2022/09/27 01:40:14;;;;;;;11.13;1.17;;;9.20;99.90;;;;;;4992992;28;20052;-75
2022/09/27 01:42:57;;;;;;;12.85;1.27;;;9.20;99.90;;;;;;4997661;28;176439;-76
2022/09/27 01:45:40;;;;;;;13.50;1.30;;;9.20;99.90;;;;;;4963931;28;218935;-77
2022/09/27 01:48:21;;;;;;;8.98;1.02;;;9.20;99.90;;;;;;5017016;28;20056;-75
2022/09/27 01:50:52;;;;;;;11.27;1.27;;;9.30;99.90;;;;;;4983976;28;189568;-74
2022/09/27 01:53:43;;;;;;;7.68;1.05;;;9.30;99.90;;;;;;5004203;28;20060;-74
2022/09/27 01:56:18;;;;;;;9.68;1.20;;;9.40;99.90;;;;;;4999694;28;208868;-74
2022/09/27 01:59:08;;;;;;;8.90;1.20;;;9.40;99.90;;;;;;5002612;28;20054;-75
2022/09/27 02:01:37;;;;;;;10.40;1.17;;;9.40;99.90;;;;;;4949823;28;205896;-75
2022/09/27 02:04:06;;;;;;;11.73;1.45;;;9.40;99.90;;;;;;4979034;28;20046;-75
2022/09/27 02:06:43;;;;;;;9.43;1.20;;;9.40;99.90;;;;;;4947837;28;210199;-74
2022/09/27 02:09:19;;;;;;;13.20;1.20;;;9.40;99.90;;;;;;5002071;28;20065;-75
2022/09/27 02:11:49;;;;;;;11.05;1.15;;;9.40;99.90;;;;;;4945706;28;206478;-75
2022/09/27 02:14:20;;;;;;;10.25;1.13;;;9.40;99.90;;;;;;5000268;28;20062;-74
2022/09/27 02:16:52;;;;;;;9.85;1.25;;;9.40;99.90;;;;;;4948148;28;207082;-75
2022/09/27 02:19:24;;;;;;;10.07;1.10;;;9.40;99.90;;;;;;4989439;28;20057;-75
2022/09/27 02:22:10;;;;;;;7.43;0.98;;;9.40;99.90;;;;;;4956946;28;206999;-76
2022/09/27 02:24:48;;;;;;;8.15;0.95;;;9.40;99.90;;;;;;5006038;28;20054;-75
2022/09/27 02:27:22;;;;;;;7.68;1.05;;;9.40;99.90;;;;;;5000880;28;202892;-75
2022/09/27 02:29:54;;;;;;;8.68;1.08;;;9.30;99.90;;;;;;4988813;28;20574;-76
2022/09/27 02:32:20;;;;;;;10.40;1.20;;;9.40;99.90;;;;;;4965552;28;209854;-76
2022/09/27 02:34:48;;;;;;;11.43;1.00;;;9.40;99.90;;;;;;5007633;28;20046;-76
2022/09/27 02:37:14;;;;;;;10.35;1.20;;;9.30;99.90;;;;;;4964371;28;209944;-76
2022/09/27 02:39:40;;;;;;;8.13;1.00;;;9.30;99.90;;;;;;5005327;28;20041;-75
2022/09/27 02:42:06;;;;;;;8.93;1.02;;;9.30;99.90;;;;;;4956844;28;210349;-75
2022/09/27 02:44:33;;;;;;;10.10;1.27;;;9.30;99.90;;;;;;4998554;28;20058;-75
2022/09/27 02:47:08;;;;;;;6.63;1.00;;;9.30;99.90;;;;;;4960902;28;206190;-75
2022/09/27 02:50:15;;;;;;;9.10;1.00;;;9.30;99.90;;;;;;5009660;28;20145;-75
2022/09/27 02:53:06;;;;;;;9.70;1.17;;;9.30;99.90;;;;;;4946093;28;200003;-75
2022/09/27 02:56:02;;;;;;;11.05;1.02;;;9.30;99.90;;;;;;4979978;28;209044;-75
2022/09/27 02:58:51;;;;;;;5.75;0.80;;;9.30;99.90;;;;;;5012337;28;20530;-75
2022/09/27 03:01:59;;;;;;;7.70;1.00;;;9.30;99.90;;;;;;4977079;28;206057;-75
2022/09/27 03:04:36;;;;;;;8.23;0.90;;;9.30;99.90;;;;;;5009447;28;20388;-75
2022/09/27 03:07:02;;;;;;;7.78;0.90;;;9.30;99.90;;;;;;4982214;28;206994;-76
2022/09/27 03:09:39;;;;;;;4.55;0.88;;;9.30;99.90;;;;;;5003696;28;20054;-75
2022/09/27 03:12:05;;;;;;;6.30;0.82;;;9.30;99.90;;;;;;4990107;28;207626;-75
2022/09/27 03:14:32;;;;;;;9.57;0.77;;;9.30;99.90;;;;;;5006009;28;20065;-76
2022/09/27 03:16:58;;;;;;;6.43;1.00;;;9.30;99.90;;;;;;4978790;28;205540;-75
2022/09/27 03:19:24;;;;;;;6.25;0.73;;;9.30;99.90;;;;;;4986563;28;20130;-75
2022/09/27 03:21:50;;;;;;;7.30;0.90;;;9.20;99.90;;;;;;4980935;28;209027;-75
2022/09/27 03:24:16;;;;;;;8.07;0.80;;;9.20;99.90;;;;;;5013973;28;20048;-75
2022/09/27 03:26:42;;;;;;;11.15;1.08;;;9.20;99.90;;;;;;4961063;28;209910;-75
2022/09/27 03:29:08;;;;;;;6.75;0.75;;;9.20;99.90;;;;;;5000590;28;20496;-75
2022/09/27 03:31:34;;;;;;;6.82;0.75;;;9.20;99.90;;;;;;4938282;28;200300;-75
2022/09/27 03:34:02;;;;;;;7.22;0.93;;;9.20;99.90;;;;;;4983295;28;20061;-75
2022/09/27 03:36:28;;;;;;;7.18;0.80;;;9.20;99.90;;;;;;4946758;28;212390;-74
2022/09/27 03:38:54;;;;;;;7.90;0.93;;;9.20;99.90;;;;;;4997487;28;20527;-74
2022/09/27 03:41:20;;;;;;;8.45;0.98;;;9.20;99.90;;;;;;4960276;28;205232;-74
2022/09/27 03:43:46;;;;;;;8.18;1.00;;;9.20;99.90;;;;;;5007933;28;20053;-73
2022/09/27 03:46:12;;;;;;;5.53;0.80;;;9.20;99.90;;;;;;4965653;28;210244;-74
2022/09/27 03:48:38;;;;;;;10.82;1.02;;;9.20;99.90;;;;;;4992191;28;20057;-73
2022/09/27 03:51:05;;;;;;;7.68;0.80;;;9.20;99.90;;;;;;4964668;28;208981;-74
2022/09/27 03:53:31;;;;;;;6.50;0.77;;;9.20;99.90;;;;;;4993280;28;20061;-74
2022/09/27 03:55:57;;;;;;;10.00;0.93;;;9.20;99.90;;;;;;4977034;28;209871;-75
2022/09/27 03:58:23;;;;;;;11.07;1.00;;;9.20;99.90;;;;;;4999105;28;20415;-75
2022/09/27 04:00:50;;;;;;;5.32;0.70;;;9.20;99.90;;;;;;4965164;28;214523;-74
2022/09/27 04:03:18;;;;;;;9.25;1.00;;;9.20;99.90;;;;;;4989574;28;20053;-75
2022/09/27 04:05:44;;;;;;;10.48;1.10;;;9.20;99.90;;;;;;4968294;28;207903;-75
2022/09/27 04:08:11;;;;;;;12.07;1.05;;;9.20;99.90;;;;;;4995141;28;20041;-75
2022/09/27 04:10:37;;;;;;;7.53;0.98;;;9.20;99.90;;;;;;4975936;28;208734;-75
2022/09/27 04:13:04;;;;;;;8.43;1.00;;;9.20;99.90;;;;;;5036411;28;20037;-75
2022/09/27 04:15:30;;;;;;;8.40;0.80;;;9.10;99.90;;;;;;4974967;28;213372;-75
2022/09/27 04:17:56;;;;;;;5.55;0.82;;;9.10;99.90;;;;;;5018381;28;20059;-75
2022/09/27 04:20:22;;;;;;;7.60;0.80;;;9.10;99.90;;;;;;4992298;28;226961;-75
2022/09/27 04:22:48;;;;;;;8.98;0.93;;;9.10;99.90;;;;;;5004671;28;20486;-75
2022/09/27 04:25:16;;;;;;;7.32;0.95;;;9.10;99.90;;;;;;4977451;28;213476;-75
2022/09/27 04:27:46;;;;;;;7.90;0.98;;;9.10;99.90;;;;;;5050567;28;20049;-75
2022/09/27 04:30:13;;;;;;;8.00;1.13;;;9.10;99.90;;;;;;4983793;28;213615;-74
2022/09/27 04:32:43;;;;;;;10.23;1.25;;;9.00;99.90;;;;;;4982538;28;206912;-75
2022/09/27 04:37:59;;;;;;;10.10;0.95;;;9.00;99.90;;;;;;4976453;28;202644;-75
2022/09/27 04:40:25;;;;;;;6.35;1.05;;;9.00;99.90;;;;;;4938328;28;210504;-75
2022/09/27 04:42:51;;;;;;;8.27;0.93;;;8.90;99.90;;;;;;4993525;28;20059;-75
2022/09/27 04:45:18;;;;;;;5.18;0.80;;;8.90;99.90;;;;;;4942123;28;212664;-74
2022/09/27 04:47:46;;;;;;;8.68;0.80;;;8.90;99.90;;;;;;5001702;28;20058;-75
2022/09/27 04:50:13;;;;;;;9.68;1.00;;;8.90;99.90;;;;;;4969869;28;210240;-73
2022/09/27 04:52:40;;;;;;;7.22;1.02;;;8.80;99.90;;;;;;5002277;28;205868;-74
2022/09/27 04:55:10;;;;;;;6.75;0.82;;;8.80;99.90;;;;;;5006429;28;20057;-74
2022/09/27 04:57:36;;;;;;;8.77;0.90;;;8.80;99.90;;;;;;4961737;28;208078;-76
2022/09/27 05:00:03;;;;;;;8.23;1.10;;;8.80;99.90;;;;;;4989007;28;20067;-75
2022/09/27 05:02:30;;;;;;;10.68;0.93;;;8.70;99.90;;;;;;4947682;28;205503;-75
2022/09/27 05:04:58;;;;;;;7.35;0.90;;;8.70;99.90;;;;;;4996101;28;20546;-75
2022/09/27 05:07:25;;;;;;;7.97;1.00;;;8.70;99.90;;;;;;4971322;28;201606;-74
2022/09/27 05:09:51;;;;;;;7.03;0.90;;;8.70;99.90;;;;;;4986393;28;20662;-74
2022/09/27 05:12:19;;;;;;;9.05;1.02;;;8.70;99.90;;;;;;4969753;28;206267;-74
2022/09/27 05:14:45;;;;;;;6.80;0.90;;;8.70;99.90;;;;;;5005736;28;20065;-75
2022/09/27 05:17:11;;;;;;;8.77;1.23;;;8.70;99.90;;;;;;5004178;28;209104;-74
2022/09/27 05:19:38;;;;;;;11.50;1.20;;;8.60;99.90;;;;;;4987970;28;20049;-75
2022/09/27 05:22:05;;;;;;;8.77;1.05;;;8.60;99.90;;;;;;4987446;28;206825;-75
2022/09/27 05:24:32;;;;;;;8.80;1.02;;;8.50;99.90;;;;;;5037752;28;20050;-75
2022/09/27 05:26:59;;;;;;;9.45;1.02;;;8.50;99.90;;;;;;4966827;28;214695;-75
2022/09/27 05:29:25;;;;;;;6.95;0.93;;;8.50;99.90;;;;;;5007982;28;20061;-76
2022/09/27 05:31:52;;;;;;;7.50;1.13;;;8.40;99.90;;;;;;4978699;28;211499;-75
2022/09/27 05:34:19;;;;;;;9.20;1.23;;;8.40;99.90;;;;;;5014621;28;20049;-74
2022/09/27 05:36:49;;;;;;;9.70;1.15;;;8.40;99.90;;;;;;4997377;28;215149;-74
2022/09/27 05:39:16;;;;;;;7.10;1.00;;;8.40;99.90;;;;;;5000579;28;20065;-74
2022/09/27 05:41:42;;;;;;;10.63;1.23;;;8.30;99.90;;;;;;4948128;28;207200;-75
2022/09/27 05:44:08;;;;;;;19.20;2.35;;;8.30;99.90;;;;;;5003491;28;20045;-75
2022/09/27 05:46:35;;;;;;;9.75;1.00;;;8.30;99.90;;;;;;4966221;28;212151;-74
2022/09/27 05:49:01;;;;;;;8.95;1.23;;;8.30;99.90;;;;;;5024215;28;20073;-74
2022/09/27 05:51:27;;;;;;;9.27;1.00;;;8.30;99.90;;;;;;4953806;28;205581;-75
2022/09/27 05:53:53;;;;;;;8.27;1.00;;;8.40;99.90;;;;;;5008481;28;20080;-75
2022/09/27 05:56:19;;;;;;;11.20;1.30;;;8.40;99.90;;;;;;4954600;28;205191;-75
2022/09/27 05:58:45;;;;;;;10.02;1.20;;;8.40;99.90;;;;;;5006062;28;20061;-75
2022/09/27 06:01:11;;;;;;;8.55;0.90;;;8.40;99.90;;;;;;4967242;28;168596;-75
2022/09/27 06:03:39;;;;;;;6.35;1.08;;;8.50;99.90;;;;;;4988752;28;20415;-75
2022/09/27 06:06:06;;;;;;;11.68;1.48;;;8.50;99.90;;;;;;4955758;28;205868;-74
2022/09/27 06:08:34;;;;;;;6.97;1.10;;;8.50;99.90;;;;;;5004092;28;20510;-72
2022/09/27 06:11:03;;;;;;;9.00;1.23;;;8.50;99.90;;;;;;4966160;28;205306;-74
2022/09/27 06:13:29;;;;;;;8.75;1.10;;;8.50;99.90;;;;;;4995214;28;20057;-74
2022/09/27 06:15:55;;;;;;;10.52;1.40;;;8.60;99.90;;;;;;4965233;28;204545;-74
2022/09/27 06:18:21;;;;;;;10.90;1.20;;;8.60;99.90;;;;;;5008504;28;20046;-74
2022/09/27 06:20:47;;;;;;;12.55;1.40;;;8.60;99.90;;;;;;4969829;28;211621;-74
2022/09/27 06:23:17;;;;;;;8.95;1.40;;;8.60;99.90;;;;;;5008801;28;20045;-74
2022/09/27 06:25:44;;;;;;;13.55;1.75;;;8.70;99.90;;;;;;4977101;28;209113;-74
2022/09/27 06:28:10;;;;;;;12.82;1.60;;;8.70;99.90;;;;;;4996449;28;20529;-73
2022/09/27 06:30:42;;;;;;;9.30;1.40;;;8.80;99.90;;;;;;4971456;28;211789;-74
2022/09/27 06:33:13;;;;;;;11.52;1.40;;;8.80;99.90;;;;;;5017569;28;20065;-74
2022/09/27 06:35:41;;;;;;;10.60;1.10;;;8.90;99.90;;;;;;4965289;28;205028;-75
2022/09/27 06:38:11;;;;;;;9.50;1.45;;;8.90;99.90;;;;;;5004394;28;20478;-75
2022/09/27 06:40:37;;;;;;;11.90;1.40;;;8.90;99.90;;;;;;4966770;28;207176;-75
2022/09/27 06:43:09;;;;;;;13.45;1.67;;;9.00;99.90;;;;;;5018713;28;20053;-73
2022/09/27 06:45:36;;;;;;;11.10;1.40;;;9.10;99.90;;;;;;4961783;28;207327;-74
2022/09/27 06:48:07;;;;;;;9.73;1.40;;;9.10;99.90;;;;;;5004643;28;20061;-74
2022/09/27 06:50:34;;;;;;;;;;;9.20;99.90;;;;;;4971841;28;219850;-73
2022/09/27 06:53:01;;;;;;;9.07;1.95;;;9.30;99.90;;;;;;5002066;28;20654;-74
2022/09/27 06:55:27;;;;;;;8.20;1.35;;;9.40;99.90;;;;;;4981738;28;210261;-73
2022/09/27 07:00:46;;;;;;;8.73;1.20;;;9.50;99.90;;;;;;4967359;28;205491;-74
2022/09/27 07:03:13;;;;;;;10.88;1.52;;;9.50;99.90;;;;;;5016221;28;20525;-74
2022/09/27 07:05:42;;;;;;;9.10;1.88;;;9.50;99.90;;;;;;4977056;28;206095;-73
2022/09/27 07:08:13;;;;;;;12.93;1.42;;;9.50;99.90;;;;;;5016067;28;20503;-74
2022/09/27 07:10:39;;;;;;;9.77;1.23;;;9.40;99.90;;;;;;4970431;28;206643;-74
2022/09/27 07:13:08;;;;;;;11.68;1.40;;;9.40;99.90;;;;;;5003913;28;20308;-74
2022/09/27 07:15:36;;;;;;;10.00;1.25;;;9.40;99.90;;;;;;4968710;28;212529;-74
2022/09/27 07:18:04;;;;;;;7.97;1.30;;;9.40;99.90;;;;;;4991314;28;20419;-75
2022/09/27 07:20:31;;;;;;;11.70;1.57;;;9.40;99.90;;;;;;4977986;28;210762;-73
2022/09/27 07:22:58;;;;;;;7.90;1.10;;;9.50;99.90;;;;;;5019010;28;20045;-73
2022/09/27 07:25:24;;;;;;;6.53;1.10;;;9.50;99.90;;;;;;4964416;28;208610;-74
2022/09/27 07:27:51;;;;;;;6.97;1.15;;;9.50;99.90;;;;;;4995099;28;20061;-75
2022/09/27 07:30:19;;;;;;;10.77;1.33;;;9.60;99.90;;;;;;4962374;28;210954;-75
2022/09/27 07:32:45;;;;;;;9.27;1.30;;;9.60;99.90;;;;;;5015319;28;20062;-75
2022/09/27 07:35:14;;;;;;;11.88;1.58;;;9.60;99.90;;;;;;4999470;28;209192;-75
2022/09/27 07:37:41;;;;;;;9.48;1.25;;;9.70;99.90;;;;;;4982739;28;205761;-75
2022/09/27 07:40:09;;;;;;;9.18;1.15;;;9.80;99.90;;;;;;5025415;28;20061;-75
2022/09/27 07:42:40;;;;;;;7.28;1.00;;;9.90;99.90;;;;;;4977678;28;65072;-75
2022/09/27 07:45:07;;;;;;;8.13;1.20;;;10.10;99.90;;;;;;5041542;28;20046;-73
2022/09/27 07:47:35;;;;;;;6.80;1.02;;;10.30;99.90;;;;;;4962675;28;253141;-74
2022/09/27 07:50:01;;;;;;;7.72;1.20;;;10.60;99.90;;;;;;5007686;28;20060;-74
2022/09/27 07:52:27;;;;;;;9.55;1.00;;;10.70;99.90;;;;;;4972954;28;205428;-74
2022/09/27 07:54:53;;;;;;;8.18;0.90;;;10.80;99.90;;;;;;5008160;28;20061;-74
2022/09/27 07:57:21;;;;;;;5.35;0.75;;;10.80;99.90;;;;;;4962996;28;210344;-75
2022/09/27 07:59:48;;;;;;;6.82;0.88;;;10.80;99.90;;;;;;5025032;28;20056;-74
2022/09/27 08:02:15;;;;;;;6.35;0.93;;;10.80;99.90;;;;;;4980237;28;210596;-74
2022/09/27 08:04:42;;;;;;;8.27;0.90;;;11.00;99.90;;;;;;5008715;28;20042;-74
2022/09/27 08:07:09;;;;;;;5.03;0.70;;;11.10;99.90;;;;;;4979106;28;42215;-74
2022/09/27 08:09:36;;;;;;;6.15;0.90;;;11.00;99.90;;;;;;5005813;28;20515;-74
2022/09/27 08:12:03;;;;;;;7.32;0.90;;;11.10;99.90;;;;;;4956420;28;205553;-74
2022/09/27 08:14:32;;;;;;;4.28;0.63;;;11.20;99.90;;;;;;5007421;28;20057;-74
2022/09/27 08:16:59;;;;;;;4.60;0.63;;;11.30;99.90;;;;;;4977306;28;211720;-75
2022/09/27 08:19:25;;;;;;;6.25;0.82;;;11.30;99.90;;;;;;5004858;28;20057;-75
2022/09/27 08:21:53;;;;;;;2.75;0.45;;;11.20;99.90;;;;;;4972829;28;206547;-75
2022/09/27 08:24:20;;;;;;;7.90;1.10;;;11.30;99.90;;;;;;5015023;28;20053;-75
2022/09/27 08:26:46;;;;;;;6.15;0.70;;;11.30;99.90;;;;;;4976097;28;219919;-75
2022/09/27 08:29:12;;;;;;;4.85;0.70;;;11.20;99.90;;;;;;5005991;28;20423;-74
2022/09/27 08:31:39;;;;;;;6.00;0.77;;;11.30;99.90;;;;;;4955799;28;205089;-75
2022/09/27 08:34:05;;;;;;;4.57;0.80;;;11.20;99.90;;;;;;5004079;28;20060;-75
2022/09/27 08:36:34;;;;;;;3.50;0.60;;;11.30;99.90;;;;;;4955609;28;205657;-76
2022/09/27 08:39:01;;;;;;;3.20;0.70;;;11.50;99.90;;;;;;5030750;28;20061;-76
2022/09/27 08:41:51;;;;;;;5.70;0.52;;;11.70;99.90;;;;;;4942379;28;205807;-75
2022/09/27 08:44:40;;;;;;;6.05;0.80;;;11.70;99.90;;;;;;5004672;28;20042;-75
2022/09/27 08:47:17;;;;;;;6.18;0.90;;;11.70;99.90;;;;;;4983436;28;216526;-75
2022/09/27 08:49:58;;;;;;;6.55;0.80;;;11.70;99.90;;;;;;5022134;28;20084;-75
2022/09/27 08:52:26;;;;;;;;;;;11.90;99.90;;;;;;4976394;28;211434;-75
2022/09/27 08:54:54;;;;;;;5.95;0.90;;;12.20;99.90;;;;;;5035920;28;19917;-75
2022/09/27 08:57:22;;;;;;;5.78;0.90;;;12.40;99.90;;;;;;4968522;28;203598;-75
2022/09/27 09:00:05;;;;;;;7.57;1.00;;;12.20;99.90;;;;;;5004105;28;20065;-75
2022/09/27 09:02:33;;;;;;;5.45;1.00;;;12.20;99.90;;;;;;4961257;28;205506;-75
2022/09/27 09:05:07;;;;;;;5.30;1.00;;;12.20;99.90;;;;;;5007297;28;20058;-75
2022/09/27 09:08:05;;;;;;;5.28;0.70;;;12.00;99.90;;;;;;4943148;28;203105;-75
2022/09/27 09:13:35;;;;;;;5.68;0.88;;;12.50;99.90;;;;;;5001089;28;20050;-75
2022/09/27 09:16:28;;;;;;;6.57;0.80;;;12.80;99.90;;;;;;4943761;28;216131;-75
2022/09/27 09:19:10;;;;;;;8.82;1.15;;;13.30;99.90;;;;;;4997664;28;20050;-76
2022/09/27 09:21:54;;;;;;;5.78;0.90;;;13.40;99.90;;;;;;4947679;28;208800;-75
2022/09/27 09:24:53;;;;;;;7.90;1.00;;;13.20;99.90;;;;;;4988629;28;20051;-75
2022/09/27 09:28:07;;;;;;;7.57;1.00;;;13.00;99.90;;;;;;4974490;28;213080;-75
2022/09/27 09:30:56;;;;;;;8.48;1.00;;;13.10;99.90;;;;;;4941301;28;204816;-75
2022/09/27 09:33:49;;;;;;;7.38;1.05;;;13.50;99.90;;;;;;4965374;28;20069;-75
2022/09/27 09:36:27;;;;;;;10.25;1.10;;;13.60;99.90;;;;;;4929226;28;206229;-75
2022/09/27 09:39:02;;;;;;;5.70;0.80;;;13.60;99.90;;;;;;4949646;28;20097;-76
2022/09/27 09:41:40;;;;;;;6.90;1.10;;;13.50;99.90;;;;;;4914682;28;206328;-75
2022/09/27 09:44:22;;;;;;;8.10;1.08;;;13.60;99.90;;;;;;4949815;28;20051;-75
2022/09/27 09:46:52;;;;;;;5.72;0.90;;;13.30;99.90;;;;;;4919154;28;206804;-75
2022/09/27 09:49:44;;;;;;;8.60;1.20;;;13.40;99.90;;;;;;4966786;28;20055;-75
2022/09/27 09:52:14;;;;;;;5.32;0.90;;;13.40;99.90;;;;;;4923910;28;205277;-76
2022/09/27 09:54:49;;;;;;;6.10;0.88;;;13.20;99.90;;;;;;4976444;28;20069;-76
2022/09/27 09:57:42;;;;;;;9.30;0.90;;;13.10;99.90;;;;;;4922101;28;202796;-76
2022/09/27 10:00:18;;;;;;;5.07;0.73;;;13.00;99.90;;;;;;4955949;28;168327;-75
2022/09/27 10:02:46;;;;;;;8.18;0.73;;;12.90;99.90;;;;;;4938870;28;148367;-75
2022/09/27 10:05:16;;;;;;;5.70;0.90;;;13.00;99.90;;;;;;4933077;28;216139;-76
2022/09/27 10:07:44;;;;;;;5.05;0.70;;;13.10;99.90;;;;;;4965344;28;206389;-74
2022/09/27 10:10:16;;;;;;;6.45;0.80;;;13.10;99.90;;;;;;4973666;28;211311;-75
2022/09/27 10:12:43;;;;;;;5.38;0.70;;;12.80;99.90;;;;;;4960189;28;204306;-75
2022/09/27 10:15:16;;;;;;;5.22;0.60;;;12.50;99.90;;;;;;4976915;28;209692;-74
2022/09/27 10:17:48;;;;;;;6.03;0.70;;;11.90;99.90;;;;;;4952278;28;208027;-74
2022/09/27 10:20:26;;;;;;;4.78;0.52;;;11.60;99.90;;;;;;4958533;28;208905;-74
2022/09/27 10:23:08;;;;;;;3.90;0.50;;;11.30;99.90;;;;;;4986291;28;20671;-74
2022/09/27 10:25:53;;;;;;;3.60;0.60;;;11.00;99.90;;;;;;4947499;28;206915;-74
2022/09/27 10:28:32;;;;;;;5.30;0.50;;;10.90;99.90;;;;;;4992694;28;20050;-75
2022/09/27 10:31:05;;;;;;;4.53;0.50;;;10.70;99.90;;;;;;4960156;28;216639;-75
2022/09/27 10:33:32;;;;;;;5.15;0.65;;;10.70;99.90;;;;;;4994253;28;20252;-74
2022/09/27 10:35:59;;;;;;;4.57;0.50;;;10.70;99.90;;;;;;4938691;28;202376;-74
2022/09/27 10:38:32;;;;;;;3.95;0.52;;;10.70;99.90;;;;;;4985484;28;20061;-76
2022/09/27 10:41:23;;;;;;;6.13;0.70;;;10.90;99.90;;;;;;4961139;28;205278;-74
2022/09/27 10:43:50;;;;;;;2.75;0.40;;;11.20;99.90;;;;;;4992371;28;20057;-76
2022/09/27 10:46:30;;;;;;;4.53;0.70;;;11.30;99.90;;;;;;4935867;28;206491;-76
2022/09/27 10:49:26;;;;;;;4.95;1.00;;;11.40;99.90;;;;;;4991669;28;20062;-76
2022/09/27 10:51:55;;;;;;;3.25;0.55;;;11.50;99.90;;;;;;4944644;28;212280;-75
2022/09/27 10:54:27;;;;;;;2.97;0.52;;;11.50;99.90;;;;;;4990865;28;20061;-75
2022/09/27 10:56:56;;;;;;;4.82;0.60;;;11.60;99.90;;;;;;4994892;28;156460;-75
2022/09/27 10:59:23;;;;;;;5.88;0.75;;;11.70;99.90;;;;;;5004720;28;20507;-75
2022/09/27 11:01:50;;;;;;;3.28;0.60;;;11.60;99.90;;;;;;4979844;28;104434;-75
2022/09/27 11:04:23;;;;;;;7.82;1.05;;;11.50;99.90;;;;;;5023212;28;20046;-74
2022/09/27 11:06:49;;;;;;;5.03;0.70;;;11.40;99.90;;;;;;4976933;28;211557;-74
2022/09/27 11:09:22;;;;;;;3.10;0.50;;;11.10;99.90;;;;;;5013382;28;20054;-75
2022/09/27 11:11:48;;;;;;;3.13;0.45;;;10.40;99.90;;;;;;4958375;28;210341;-74
2022/09/27 11:14:23;;;;;;;2.05;0.40;;;10.00;99.90;;;;;;5008605;28;20108;-75
2022/09/27 11:17:08;;;;;;;2.25;0.40;;;10.00;99.90;;;;;;4979271;28;207517;-74
2022/09/27 11:19:41;;;;;;;2.15;0.43;;;10.10;99.90;;;;;;5008426;28;20062;-74
2022/09/27 11:22:41;;;;;;;5.82;0.43;;;10.40;99.90;;;;;;4987826;28;205573;-76
2022/09/27 11:25:30;;;;;;;5.13;0.40;;;10.80;99.90;;;;;;5013628;28;20049;-76
2022/09/27 11:28:11;;;;;;;2.92;0.47;;;11.10;99.90;;;;;;4977724;28;210468;-76
2022/09/27 11:30:51;;;;;;;38.55;1.75;;;11.50;99.90;;;;;;4969050;28;204768;-76
2022/09/27 11:33:48;;;;;;;128.23;5.63;;;11.90;99.90;;;;;;5010319;28;20066;-75
2022/09/27 11:36:51;;;;;;;1.70;0.40;;;12.70;99.90;;;;;;4962137;28;208428;-75
2022/09/27 11:39:33;;;;;;;1.65;0.35;;;13.30;99.90;;;;;;5007101;28;20054;-75
2022/09/27 11:42:47;;;;;;;1.50;0.40;;;13.10;99.90;;;;;;4969983;28;212359;-76
2022/09/27 11:45:32;;;;;;;1.92;0.30;;;13.30;99.90;;;;;;4976301;28;179086;-75
2022/09/27 11:48:18;;;;;;;3.28;0.52;;;13.90;99.90;;;;;;4962674;28;206180;-76
2022/09/27 11:51:22;;;;;;;6.70;0.93;;;14.50;99.90;;;;;;4956695;28;189396;-75
2022/09/27 11:54:15;;;;;;;4.07;0.60;;;14.90;99.90;;;;;;4989191;28;20050;-76
2022/09/27 11:57:20;;;;;;;5.65;0.52;;;15.60;99.90;;;;;;4960893;28;206631;-75
2022/09/27 11:59:52;;;;;;;3.90;0.50;;;15.70;99.90;;;;;;5002869;28;20050;-76
2022/09/27 12:02:28;;;;;;;5.07;0.60;;;15.20;99.90;;;;;;4938310;28;206006;-75
2022/09/27 12:05:25;;;;;;;4.72;0.60;;;14.70;99.90;;;;;;5006373;28;20050;-75
2022/09/27 12:08:07;;;;;;;6.00;0.75;;;14.50;99.90;;;;;;4968973;28;210635;-74
2022/09/27 12:10:37;;;;;;;5.40;0.60;;;14.30;99.90;;;;;;4967193;28;157999;-74
2022/09/27 12:13:04;;;;;;;6.25;0.68;;;14.20;99.90;;;;;;4987260;28;20054;-74
2022/09/27 12:15:37;;;;;;;3.90;0.60;;;14.10;99.90;;;;;;4940028;28;118572;-74
2022/09/27 12:18:31;;;;;;;4.05;0.50;;;14.00;99.90;;;;;;4994434;28;20483;-74
2022/09/27 12:21:01;;;;;;;4.90;0.70;;;13.70;99.90;;;;;;4957482;28;214840;-74
2022/09/27 12:23:40;;;;;;;6.50;0.73;;;13.40;99.90;;;;;;5010405;28;20511;-74
2022/09/27 12:26:28;;;;;;;4.20;0.70;;;13.30;99.90;;;;;;4970608;28;219123;-74
2022/09/27 12:29:01;;;;;;;6.50;0.60;;;13.10;99.90;;;;;;5016085;28;20054;-75
2022/09/27 12:31:35;;;;;;;3.25;0.60;;;12.90;99.90;;;;;;4960680;28;205753;-74
2022/09/27 12:34:26;;;;;;;3.70;0.60;;;12.70;99.90;;;;;;4988453;28;20058;-76
2022/09/27 12:37:06;;;;;;;7.05;0.50;;;12.60;99.90;;;;;;4962214;28;156049;-76
2022/09/27 12:39:35;;;;;;;4.72;0.63;;;12.40;99.90;;;;;;5007087;28;20065;-75
2022/09/27 12:42:16;;;;;;;7.72;0.80;;;12.20;99.90;;;;;;4979139;28;71727;-76
2022/09/27 12:44:43;;;;;;;3.15;0.60;;;12.00;99.90;;;;;;5009339;28;20442;-76
2022/09/27 12:47:40;;;;;;;5.82;0.70;;;11.70;99.90;;;;;;4964615;28;206564;-75
2022/09/27 12:50:12;;;;;;;3.75;0.55;;;11.50;99.90;;;;;;4967864;28;20093;-75
2022/09/27 12:52:46;;;;;;;4.30;0.57;;;11.30;99.90;;;;;;4925296;28;205526;-74
2022/09/27 12:55:27;;;;;;;4.10;0.60;;;11.20;99.90;;;;;;4950245;28;163024;-75
2022/09/27 12:58:14;;;;;;;3.67;0.50;;;11.10;99.90;;;;;;4944287;28;205461;-75
2022/09/27 13:01:09;;;;;;;1.73;0.30;;;11.10;99.90;;;;;;4932338;28;159691;-76
2022/09/27 13:03:47;;;;;;;3.88;0.40;;;11.20;99.90;;;;;;4971222;28;20055;-75
2022/09/27 13:06:24;;;;;;;3.25;0.50;;;11.30;99.90;;;;;;4939888;28;145154;-74
2022/09/27 13:08:53;;;;;;;3.15;0.40;;;11.50;99.90;;;;;;4970097;28;20061;-74
2022/09/27 13:11:43;;;;;;;2.35;0.50;;;11.70;99.90;;;;;;4934011;28;206244;-75
2022/09/27 13:14:18;;;;;;;3.95;0.70;;;12.30;99.90;;;;;;4951257;28;20555;-75
2022/09/27 13:16:46;;;;;;;3.47;0.65;;;12.90;99.90;;;;;;4917327;28;206164;-74
2022/09/27 13:19:36;;;;;;;5.28;0.57;;;13.30;99.90;;;;;;4950301;28;20439;-74
2022/09/27 13:22:07;;;;;;;4.18;0.52;;;14.10;99.90;;;;;;4937824;28;209202;-74
2022/09/27 13:24:42;;;;;;;3.17;0.50;;;14.30;99.90;;;;;;4951741;28;20058;-74